createdAt,value
2018-05-04T00:01:38.005Z,40.93
2018-05-04T00:04:06.925Z,41.27
2018-05-04T00:06:35.852Z,40.33
2018-05-04T00:09:04.879Z,42.20
2018-05-04T00:11:33.800Z,40.63
2018-05-04T00:14:02.760Z,43.90
2018-05-04T00:16:31.936Z,39.20
2018-05-04T00:19:00.853Z,39.10
2018-05-04T00:21:29.828Z,39.70
2018-05-04T00:23:58.760Z,38.93
2018-05-04T00:26:27.689Z,36.53
2018-05-04T00:28:56.620Z,37.83
2018-05-04T00:31:25.540Z,37.80
2018-05-04T00:33:54.469Z,39.00
2018-05-04T00:36:23.401Z,37.33
2018-05-04T00:38:52.320Z,35.07
2018-05-04T00:41:21.247Z,37.23
2018-05-04T00:43:50.316Z,35.77
2018-05-04T00:46:19.229Z,38.77
2018-05-04T00:48:48.155Z,40.53
2018-05-04T00:51:17.081Z,39.20
2018-05-04T00:53:52.000Z,37.83
2018-05-04T00:56:20.920Z,37.97
2018-05-04T00:58:49.849Z,35.10
2018-05-04T01:01:18.845Z,39.10
2018-05-04T01:03:47.770Z,34.47
2018-05-04T01:06:16.696Z,37.63
2018-05-04T01:08:45.618Z,37.03
2018-05-04T01:11:14.612Z,37.50
2018-05-04T01:13:43.569Z,34.60
2018-05-04T01:16:12.500Z,32.10
2018-05-04T01:18:41.418Z,34.40
2018-05-04T01:21:10.374Z,33.77
2018-05-04T01:23:39.302Z,31.40
2018-05-04T01:26:08.233Z,33.00
2018-05-04T01:28:37.157Z,31.27
2018-05-04T01:31:06.097Z,31.97
2018-05-04T01:33:35.058Z,33.10
2018-05-04T01:36:03.981Z,31.13
2018-05-04T01:38:32.905Z,28.80
2018-05-04T01:41:01.845Z,30.60
2018-05-04T01:43:30.904Z,31.07
2018-05-04T01:45:59.825Z,30.57
2018-05-04T01:48:28.756Z,26.00
2018-05-04T01:50:57.681Z,27.43
2018-05-04T01:53:26.627Z,23.27
2018-05-04T01:55:55.565Z,22.87
2018-05-04T01:58:24.492Z,27.03
2018-05-04T02:00:53.413Z,22.40
2018-05-04T02:03:22.337Z,24.10
2018-05-04T02:05:51.256Z,19.97
2018-05-04T02:08:20.189Z,24.97
2018-05-04T02:10:49.189Z,22.20
2018-05-04T02:13:18.125Z,23.20
2018-05-04T02:15:47.055Z,23.33
2018-05-04T02:18:15.992Z,22.30
2018-05-04T02:20:44.905Z,20.20
2018-05-04T02:23:13.836Z,20.63
2018-05-04T02:25:42.765Z,18.87
2018-05-04T02:28:11.685Z,18.33
2018-05-04T02:30:40.624Z,18.33
2018-05-04T02:33:09.544Z,18.77
2018-05-04T02:35:38.497Z,19.47
2018-05-04T02:38:07.416Z,18.60
2018-05-04T02:40:36.337Z,17.27
2018-05-04T02:43:05.279Z,20.00
2018-05-04T02:45:34.204Z,18.17
2018-05-04T02:48:03.137Z,18.53
2018-05-04T02:50:32.076Z,25.47
2018-05-04T02:53:01.025Z,26.90
2018-05-04T02:55:29.992Z,20.70
2018-05-04T02:57:58.925Z,19.30
2018-05-04T03:00:27.865Z,17.43
2018-05-04T03:02:56.789Z,16.17
2018-05-04T03:05:25.822Z,17.40
2018-05-04T03:07:54.750Z,18.70
2018-05-04T03:10:24.548Z,16.93
2018-05-04T03:12:53.485Z,16.00
2018-05-04T03:15:22.413Z,12.90
2018-05-04T03:17:51.340Z,13.40
2018-05-04T03:20:20.256Z,9.60
2018-05-04T03:22:49.172Z,14.40
2018-05-04T03:25:18.142Z,12.50
2018-05-04T03:27:47.063Z,11.43
2018-05-04T03:30:15.996Z,11.70
2018-05-04T03:32:44.932Z,11.27
2018-05-04T03:35:13.869Z,9.00
2018-05-04T03:37:42.787Z,9.40
2018-05-04T03:40:11.722Z,7.93
2018-05-04T03:42:40.667Z,10.00
2018-05-04T03:45:09.603Z,9.57
2018-05-04T03:47:38.534Z,10.07
2018-05-04T03:50:07.461Z,8.63
2018-05-04T03:52:36.434Z,9.57
2018-05-04T03:55:05.348Z,8.93
2018-05-04T03:57:40.268Z,10.50
2018-05-04T04:00:15.185Z,9.87
2018-05-04T04:02:49.968Z,8.37
2018-05-04T04:05:18.892Z,9.90
2018-05-04T04:07:47.848Z,9.97
2018-05-04T04:10:16.824Z,10.27
2018-05-04T04:12:45.767Z,9.20
2018-05-04T04:15:14.696Z,10.43
2018-05-04T04:17:43.638Z,7.90
2018-05-04T04:20:12.553Z,11.30
2018-05-04T04:22:41.477Z,18.37
2018-05-04T04:25:10.416Z,25.93
2018-05-04T04:27:39.338Z,11.17
2018-05-04T04:30:08.272Z,31.77
2018-05-04T04:32:37.188Z,10.23
2018-05-04T04:35:06.107Z,16.50
2018-05-04T04:37:35.143Z,20.00
2018-05-04T04:40:04.074Z,21.07
2018-05-04T04:42:32.996Z,23.13
2018-05-04T04:45:01.929Z,22.93
2018-05-04T04:47:30.852Z,18.27
2018-05-04T04:49:59.794Z,14.40
2018-05-04T04:52:28.707Z,21.33
2018-05-04T04:54:57.624Z,11.20
2018-05-04T04:57:26.545Z,10.90
2018-05-04T04:59:55.464Z,9.57
2018-05-04T05:02:24.424Z,11.47
2018-05-04T05:04:53.367Z,14.60
2018-05-04T05:07:22.296Z,13.17
2018-05-04T05:09:51.212Z,17.47
2018-05-04T05:12:20.154Z,16.80
2018-05-04T05:14:49.080Z,23.40
2018-05-04T05:17:18.029Z,14.77
2018-05-04T05:19:46.960Z,13.83
2018-05-04T05:22:15.989Z,10.97
2018-05-04T05:24:44.949Z,13.53
2018-05-04T05:27:13.883Z,12.47
2018-05-04T05:29:42.805Z,10.63
2018-05-04T05:32:11.745Z,12.60
2018-05-04T05:34:40.668Z,11.67
2018-05-04T05:37:09.585Z,15.77
2018-05-04T05:39:38.537Z,12.70
2018-05-04T05:42:07.457Z,13.97
2018-05-04T05:44:36.385Z,14.10
2018-05-04T05:47:05.327Z,12.93
2018-05-04T05:49:34.248Z,12.43
2018-05-04T05:52:03.189Z,13.70
2018-05-04T05:54:32.119Z,15.10
2018-05-04T05:57:01.051Z,13.33
2018-05-04T05:59:29.972Z,11.40
2018-05-04T06:01:59.074Z,12.83
2018-05-04T06:04:27.997Z,11.53
2018-05-04T06:06:56.920Z,10.63
2018-05-04T06:09:25.955Z,11.47
2018-05-04T06:11:54.824Z,10.10
2018-05-04T06:14:23.757Z,10.67
2018-05-04T06:16:52.686Z,11.73
2018-05-04T06:19:21.671Z,12.17
2018-05-04T06:21:50.604Z,11.20
2018-05-04T06:24:19.517Z,10.50
2018-05-04T06:26:48.541Z,11.60
2018-05-04T06:29:17.466Z,13.80
2018-05-04T06:31:46.393Z,10.60
2018-05-04T06:34:15.347Z,10.73
2018-05-04T06:36:44.272Z,11.17
2018-05-04T06:39:13.188Z,11.80
2018-05-04T06:41:42.120Z,14.10
2018-05-04T06:44:11.042Z,11.47
2018-05-04T06:46:40.109Z,11.83
2018-05-04T06:49:09.030Z,9.10
2018-05-04T06:51:37.956Z,12.60
2018-05-04T06:54:06.881Z,11.07
2018-05-04T06:56:35.836Z,12.57
2018-05-04T06:59:04.786Z,10.80
2018-05-04T07:01:34.060Z,10.60
2018-05-04T07:04:02.999Z,10.53
2018-05-04T07:06:32.259Z,11.03
2018-05-04T07:09:01.238Z,12.40
2018-05-04T07:11:30.139Z,10.20
2018-05-04T07:13:59.132Z,11.80
2018-05-04T07:16:28.096Z,11.20
2018-05-04T07:18:57.119Z,9.80
2018-05-04T07:21:26.107Z,10.10
2018-05-04T07:23:55.051Z,12.47
2018-05-04T07:26:24.298Z,9.80
2018-05-04T07:28:53.308Z,10.23
2018-05-04T07:31:22.268Z,9.37
2018-05-04T07:33:51.221Z,10.90
2018-05-04T07:36:20.473Z,9.80
2018-05-04T07:38:49.419Z,11.10
2018-05-04T07:41:18.373Z,8.53
2018-05-04T07:43:47.318Z,8.80
2018-05-04T07:46:16.251Z,8.70
2018-05-04T07:48:45.296Z,9.67
2018-05-04T07:51:14.218Z,9.23
2018-05-04T07:53:43.168Z,9.43
2018-05-04T07:56:12.128Z,9.43
2018-05-04T07:58:41.094Z,9.40
2018-05-04T08:01:10.052Z,9.40
2018-05-04T08:03:39.027Z,11.70
2018-05-04T08:06:07.999Z,10.60
2018-05-04T08:08:36.991Z,9.40
2018-05-04T08:11:05.952Z,9.77
2018-05-04T08:13:34.931Z,9.33
2018-05-04T08:16:03.901Z,10.07
2018-05-04T08:18:32.848Z,8.77
2018-05-04T08:21:01.810Z,8.77
2018-05-04T08:23:30.767Z,8.67
2018-05-04T08:25:59.814Z,8.27
2018-05-04T08:28:28.772Z,7.60
2018-05-04T08:30:57.730Z,9.53
2018-05-04T08:33:26.675Z,24.47
2018-05-04T08:35:55.700Z,18.83
2018-05-04T08:38:24.650Z,12.40
2018-05-04T08:40:53.699Z,8.73
2018-05-04T08:43:22.579Z,9.00
2018-05-04T08:45:51.554Z,10.30
2018-05-04T08:48:20.643Z,11.17
2018-05-04T08:50:49.594Z,9.50
2018-05-04T08:53:18.506Z,9.10
2018-05-04T08:55:47.475Z,11.10
2018-05-04T08:58:16.457Z,10.50
2018-05-04T09:00:45.424Z,10.10
2018-05-04T09:03:14.398Z,9.77
2018-05-04T09:05:43.408Z,10.37
2018-05-04T09:08:12.385Z,597.33
2018-05-04T09:10:41.377Z,310.03
2018-05-04T09:13:10.344Z,175.70
2018-05-04T09:15:39.307Z,39.27
2018-05-04T09:18:08.269Z,108.60
2018-05-04T09:20:37.228Z,101.93
2018-05-04T09:23:06.195Z,68.30
2018-05-04T09:25:35.168Z,44.20
2018-05-04T09:28:04.131Z,51.83
2018-05-04T09:30:33.090Z,30.03
2018-05-04T09:33:02.056Z,35.97
2018-05-04T09:35:31.005Z,31.73
2018-05-04T09:38:00.012Z,17.57
2018-05-04T09:40:28.960Z,27.33
2018-05-04T09:42:57.915Z,22.23
2018-05-04T09:45:27.048Z,11.00
2018-05-04T09:47:56.076Z,9.87
2018-05-04T09:50:25.038Z,26.03
2018-05-04T09:52:53.996Z,23.80
2018-05-04T09:55:22.956Z,12.10
2018-05-04T09:57:51.899Z,13.47
2018-05-04T10:00:20.851Z,12.77
2018-05-04T10:02:49.831Z,15.53
2018-05-04T10:05:18.780Z,12.90
2018-05-04T10:07:47.736Z,16.77
2018-05-04T10:10:16.708Z,15.53
2018-05-04T10:12:45.682Z,13.60
2018-05-04T10:15:14.683Z,11.17
2018-05-04T10:17:43.642Z,6.87
2018-05-04T10:20:12.595Z,13.10
2018-05-04T10:22:41.658Z,12.07
2018-05-04T10:25:10.621Z,8.00
2018-05-04T10:27:39.575Z,10.80
2018-05-04T10:30:08.530Z,8.10
2018-05-04T10:32:37.507Z,8.57
2018-05-04T10:35:06.516Z,9.47
2018-05-04T10:37:35.490Z,8.00
2018-05-04T10:40:04.431Z,8.40
2018-05-04T10:42:33.380Z,8.70
2018-05-04T10:45:02.467Z,7.30
2018-05-04T10:47:31.378Z,8.80
2018-05-04T10:50:00.336Z,4.87
2018-05-04T10:52:29.301Z,7.67
2018-05-04T10:54:58.272Z,5.07
2018-05-04T10:57:27.272Z,5.50
2018-05-04T10:59:56.258Z,6.10
2018-05-04T11:02:25.207Z,5.10
2018-05-04T11:04:54.172Z,4.33
2018-05-04T11:07:23.148Z,5.90
2018-05-04T11:09:52.142Z,5.90
2018-05-04T11:12:21.112Z,5.33
2018-05-04T11:14:50.080Z,5.50
2018-05-04T11:17:19.065Z,5.00
2018-05-04T11:19:48.012Z,6.73
2018-05-04T11:22:16.969Z,6.40
2018-05-04T11:24:45.892Z,5.40
2018-05-04T11:27:14.816Z,5.87
2018-05-04T11:29:43.845Z,5.77
2018-05-04T11:32:12.836Z,5.77
2018-05-04T11:34:41.772Z,4.70
2018-05-04T11:37:10.713Z,4.13
2018-05-04T11:39:39.654Z,5.60
2018-05-04T11:42:08.625Z,5.30
2018-05-04T11:44:37.559Z,5.73
2018-05-04T11:47:06.479Z,5.83
2018-05-04T11:49:35.552Z,5.97
2018-05-04T11:52:04.425Z,4.83
2018-05-04T11:54:33.341Z,5.50
2018-05-04T11:57:02.280Z,4.67
2018-05-04T11:59:31.199Z,7.73
2018-05-04T12:02:00.132Z,5.47
2018-05-04T12:04:29.068Z,4.77
2018-05-04T12:06:58.025Z,4.77
2018-05-04T12:09:26.965Z,7.17
2018-05-04T12:11:55.888Z,4.90
2018-05-04T12:14:24.821Z,4.83
2018-05-04T12:16:53.742Z,5.63
2018-05-04T12:19:22.696Z,5.37
2018-05-04T12:21:51.782Z,5.20
2018-05-04T12:24:20.712Z,4.43
2018-05-04T12:26:49.645Z,6.67
2018-05-04T12:29:18.576Z,5.03
2018-05-04T12:31:47.560Z,5.67
2018-05-04T12:34:16.459Z,4.33
2018-05-04T12:36:45.420Z,4.83
2018-05-04T12:39:14.341Z,5.07
2018-05-04T12:41:43.276Z,4.93
2018-05-04T12:44:12.190Z,4.70
2018-05-04T12:46:41.114Z,4.50
2018-05-04T12:49:10.045Z,4.07
2018-05-04T12:51:38.972Z,4.27
2018-05-04T12:54:07.900Z,5.03
2018-05-04T12:56:36.868Z,4.53
2018-05-04T12:59:05.801Z,4.50
2018-05-04T13:01:34.733Z,4.30
2018-05-04T13:04:03.661Z,4.23
2018-05-04T13:06:32.588Z,4.63
2018-05-04T13:09:01.561Z,4.90
2018-05-04T13:11:30.489Z,3.70
2018-05-04T13:13:59.414Z,4.97
2018-05-04T13:16:28.356Z,4.70
2018-05-04T13:18:57.298Z,4.40
2018-05-04T13:21:26.224Z,5.50
2018-05-04T13:23:55.173Z,5.10
2018-05-04T13:26:24.145Z,4.90
2018-05-04T13:28:53.089Z,4.63
2018-05-04T13:31:22.028Z,3.90
2018-05-04T13:33:50.988Z,4.85
2018-05-04T13:36:19.900Z,4.80
2018-05-04T13:38:48.899Z,39.77
2018-05-04T13:41:17.784Z,178.93
2018-05-04T13:43:46.728Z,60.80
2018-05-04T13:46:15.662Z,41.40
2018-05-04T13:48:44.614Z,41.50
2018-05-04T13:51:13.633Z,41.17
2018-05-04T13:53:42.521Z,23.40
2018-05-04T13:56:11.463Z,14.80
2018-05-04T13:58:40.385Z,18.87
2018-05-04T14:01:09.396Z,15.03
2018-05-04T14:03:38.277Z,12.67
2018-05-04T14:06:07.213Z,12.30
2018-05-04T14:08:36.176Z,12.63
2018-05-04T14:11:05.108Z,9.87
2018-05-04T14:13:34.040Z,10.20
2018-05-04T14:16:02.973Z,11.00
2018-05-04T14:18:31.899Z,9.37
2018-05-04T14:21:00.821Z,9.10
2018-05-04T14:23:29.762Z,7.13
2018-05-04T14:25:58.684Z,8.53
2018-05-04T14:28:27.604Z,8.80
2018-05-04T14:30:56.534Z,8.50
2018-05-04T14:33:25.560Z,8.73
2018-05-04T14:35:54.517Z,8.70
2018-05-04T14:38:23.453Z,7.50
2018-05-04T14:40:52.381Z,9.27
2018-05-04T14:43:21.320Z,8.80
2018-05-04T14:45:50.274Z,10.50
2018-05-04T14:48:19.209Z,8.50
2018-05-04T14:50:48.135Z,8.10
2018-05-04T14:53:17.072Z,7.10
2018-05-04T14:55:46.015Z,608.10
2018-05-04T14:58:15.004Z,246.90
2018-05-04T15:00:43.947Z,181.67
2018-05-04T15:03:13.212Z,101.13
2018-05-04T15:05:42.169Z,72.83
2018-05-04T15:08:11.129Z,106.73
2018-05-04T15:10:40.058Z,70.20
2018-05-04T15:13:09.008Z,76.40
2018-05-04T15:15:37.945Z,49.80
2018-05-04T15:18:06.871Z,41.77
2018-05-04T15:20:35.845Z,68.97
2018-05-04T15:23:04.780Z,41.33
2018-05-04T15:25:33.705Z,33.77
2018-05-04T15:28:02.640Z,41.83
2018-05-04T15:30:31.585Z,38.70
2018-05-04T15:33:00.519Z,47.67
2018-05-04T15:35:29.441Z,28.37
2018-05-04T15:37:58.393Z,36.87
2018-05-04T15:40:27.437Z,27.97
2018-05-04T15:42:56.322Z,43.03
2018-05-04T15:45:25.262Z,33.73
2018-05-04T15:47:54.193Z,28.80
2018-05-04T15:50:28.944Z,35.57
2018-05-04T15:52:57.872Z,40.40
2018-05-04T15:55:26.801Z,218.63
2018-05-04T15:57:55.768Z,358.03
2018-05-04T16:00:24.963Z,278.90
2018-05-04T16:02:53.934Z,248.23
2018-05-04T16:05:22.892Z,215.90
2018-05-04T16:07:51.845Z,154.67
2018-05-04T16:10:20.782Z,160.57
2018-05-04T16:12:49.742Z,106.30
2018-05-04T16:15:18.677Z,159.13
2018-05-04T16:17:47.615Z,77.83
2018-05-04T16:20:16.551Z,121.17
2018-05-04T16:22:45.513Z,115.27
2018-05-04T16:25:14.445Z,67.63
2018-05-04T16:27:43.407Z,75.17
2018-05-04T16:30:12.386Z,52.63
2018-05-04T16:32:41.314Z,58.53
2018-05-04T16:35:10.264Z,30.30
2018-05-04T16:37:39.190Z,85.33
2018-05-04T16:40:08.132Z,55.87
2018-05-04T16:42:37.102Z,67.67
2018-05-04T16:45:06.158Z,48.70
2018-05-04T16:47:41.061Z,358.73
2018-05-04T16:50:10.029Z,604.97
2018-05-04T16:52:38.962Z,149.50
2018-05-04T16:55:08.096Z,230.07
2018-05-04T16:57:39.890Z,40.57
2018-05-04T17:00:08.852Z,424.27
2018-05-04T17:02:37.793Z,273.13
2018-05-04T17:05:06.725Z,108.17
2018-05-04T17:07:35.658Z,337.93
2018-05-04T17:10:04.658Z,461.63
2018-05-04T17:12:33.665Z,392.70
2018-05-04T17:15:02.661Z,299.60
2018-05-04T17:17:31.645Z,352.67
2018-05-04T17:20:00.580Z,317.07
2018-05-04T17:22:29.524Z,209.87
2018-05-04T17:24:58.479Z,194.13
2018-05-04T17:27:28.021Z,334.20
2018-05-04T17:29:56.954Z,358.03
2018-05-04T17:32:25.893Z,449.97
2018-05-04T17:34:54.824Z,405.80
2018-05-04T17:37:23.775Z,380.90
2018-05-04T17:39:52.716Z,407.20
2018-05-04T17:42:21.657Z,240.80
2018-05-04T17:44:50.703Z,314.07
2018-05-04T17:47:19.663Z,97.33
2018-05-04T17:49:48.589Z,168.00
2018-05-04T17:52:17.516Z,128.53
2018-05-04T17:54:46.456Z,534.97
2018-05-04T17:57:15.399Z,339.63
2018-05-04T17:59:44.321Z,85.17
2018-05-04T18:02:13.282Z,22.33
2018-05-04T18:04:42.236Z,219.50
2018-05-04T18:07:11.489Z,120.73
2018-05-04T18:09:40.427Z,66.80
2018-05-04T18:12:09.352Z,73.93
2018-05-04T18:14:38.312Z,18.33
2018-05-04T18:17:07.261Z,116.03
2018-05-04T18:19:36.198Z,70.13
2018-05-04T18:22:05.163Z,207.70
2018-05-04T18:24:34.104Z,125.03
2018-05-04T18:27:03.025Z,26.43
2018-05-04T18:29:32.656Z,78.30
2018-05-04T18:32:01.628Z,130.47
2018-05-04T18:34:30.582Z,209.43
2018-05-04T18:36:59.504Z,43.60
2018-05-04T18:39:28.436Z,63.63
2018-05-04T18:41:57.392Z,13.50
2018-05-04T18:44:26.380Z,113.27
2018-05-04T18:46:55.349Z,49.67
2018-05-04T18:49:24.288Z,11.60
2018-05-04T18:51:53.229Z,23.03
2018-05-04T18:54:22.195Z,22.67
2018-05-04T18:56:51.177Z,19.27
2018-05-04T18:59:20.108Z,16.93
2018-05-04T19:01:49.043Z,13.00
2018-05-04T19:04:18.004Z,10.93
2018-05-04T19:06:46.929Z,6.57
2018-05-04T19:09:15.919Z,31.83
2018-05-04T19:11:44.812Z,34.50
2018-05-04T19:14:13.782Z,9.47
2018-05-04T19:16:42.709Z,14.43
2018-05-04T19:19:11.640Z,7.60
2018-05-04T19:21:40.568Z,28.07
2018-05-04T19:24:09.501Z,93.10
2018-05-04T19:26:38.484Z,39.73
2018-05-04T19:29:07.422Z,38.00
2018-05-04T19:31:36.374Z,28.83
2018-05-04T19:34:05.298Z,21.40
2018-05-04T19:36:34.229Z,6.90
2018-05-04T19:39:03.157Z,9.30
2018-05-04T19:41:32.096Z,9.27
2018-05-04T19:44:01.040Z,8.37
2018-05-04T19:46:30.277Z,11.90
2018-05-04T19:48:59.200Z,6.17
2018-05-04T19:51:28.168Z,10.30
2018-05-04T19:53:57.148Z,11.40
2018-05-04T19:56:26.076Z,24.37
2018-05-04T19:58:55.076Z,8.00
2018-05-04T20:01:23.988Z,82.27
2018-05-04T20:03:52.928Z,64.23
2018-05-04T20:06:21.880Z,40.37
2018-05-04T20:08:50.825Z,26.10
2018-05-04T20:11:19.839Z,25.27
2018-05-04T20:13:48.787Z,18.40
2018-05-04T20:16:17.741Z,41.73
2018-05-04T20:18:46.665Z,16.87
2018-05-04T20:21:15.661Z,9.00
2018-05-04T20:23:44.596Z,15.27
2018-05-04T20:26:13.516Z,8.80
2018-05-04T20:28:42.468Z,14.57
2018-05-04T20:31:11.397Z,18.93
2018-05-04T20:33:40.353Z,16.40
2018-05-04T20:36:09.292Z,11.00
2018-05-04T20:38:43.485Z,10.03
2018-05-04T20:41:12.457Z,11.77
2018-05-04T20:43:41.396Z,10.97
2018-05-04T20:46:10.392Z,13.20
2018-05-04T20:48:39.369Z,29.73
2018-05-04T20:51:08.301Z,27.33
2018-05-04T20:53:37.282Z,11.37
2018-05-04T20:56:06.309Z,18.50
2018-05-04T20:58:35.286Z,10.73
2018-05-04T21:01:04.248Z,11.33
2018-05-04T21:03:33.208Z,11.33
2018-05-04T21:06:02.185Z,11.20
2018-05-04T21:08:31.181Z,9.30
2018-05-04T21:11:00.125Z,10.93
2018-05-04T21:13:29.140Z,9.70
2018-05-04T21:15:58.065Z,11.37
2018-05-04T21:18:27.005Z,9.57
2018-05-04T21:20:55.930Z,8.53
2018-05-04T21:23:24.905Z,9.73
2018-05-04T21:25:53.857Z,11.43
2018-05-04T21:28:22.785Z,11.97
2018-05-04T21:30:51.761Z,10.30
2018-05-04T21:33:20.949Z,11.30
2018-05-04T21:35:49.880Z,10.80
2018-05-04T21:38:19.518Z,10.07
2018-05-04T21:40:48.454Z,11.73
2018-05-04T21:43:17.392Z,12.60
2018-05-04T21:45:46.327Z,11.87
2018-05-04T21:48:15.290Z,8.30
2018-05-04T21:50:44.217Z,9.13
2018-05-04T21:53:13.152Z,8.60
2018-05-04T21:55:42.101Z,7.63
2018-05-04T21:58:11.021Z,9.30
2018-05-04T22:00:39.961Z,7.93
2018-05-04T22:03:08.892Z,7.97
2018-05-04T22:05:37.821Z,8.80
2018-05-04T22:08:06.745Z,11.10
2018-05-04T22:10:35.713Z,7.50
2018-05-04T22:13:04.640Z,7.60
2018-05-04T22:15:33.608Z,6.63
2018-05-04T22:18:02.504Z,8.10
2018-05-04T22:20:31.506Z,7.10
2018-05-04T22:23:00.383Z,7.17
2018-05-04T22:25:29.313Z,6.93
2018-05-04T22:27:58.273Z,8.33
2018-05-04T22:30:27.223Z,7.20
2018-05-04T22:32:56.140Z,7.80
2018-05-04T22:35:25.081Z,7.00
2018-05-04T22:37:54.000Z,8.20
2018-05-04T22:40:22.914Z,7.30
2018-05-04T22:42:51.852Z,7.13
2018-05-04T22:45:20.780Z,8.07
2018-05-04T22:47:49.704Z,7.03
2018-05-04T22:50:18.628Z,9.00
2018-05-04T22:52:47.603Z,7.80
2018-05-04T22:55:16.524Z,8.37
2018-05-04T22:57:45.452Z,6.93
2018-05-04T23:00:14.379Z,7.30
2018-05-04T23:02:43.292Z,8.83
2018-05-04T23:05:12.239Z,8.07
2018-05-04T23:07:41.557Z,8.97
2018-05-04T23:10:10.477Z,7.30
2018-05-04T23:12:39.390Z,7.53
2018-05-04T23:15:08.317Z,7.20
2018-05-04T23:17:37.239Z,8.80
2018-05-04T23:20:06.160Z,8.90
2018-05-04T23:22:35.102Z,7.30
2018-05-04T23:25:04.024Z,6.73
2018-05-04T23:27:32.957Z,8.03
2018-05-04T23:30:01.896Z,7.50
2018-05-04T23:32:30.832Z,8.00
2018-05-04T23:34:59.750Z,9.30
2018-05-04T23:37:28.686Z,8.53
2018-05-04T23:39:57.596Z,6.80
2018-05-04T23:42:26.509Z,7.13
2018-05-04T23:44:55.444Z,8.37
2018-05-04T23:47:24.364Z,7.10
2018-05-04T23:49:53.292Z,8.20
2018-05-04T23:52:22.209Z,7.60
2018-05-04T23:54:51.164Z,7.57
2018-05-04T23:57:20.084Z,8.63
2018-05-04T23:59:49.345Z,9.20
